VIR148 CYUL-EGLL
Flight info
| Callsign | VIR148 |
|---|---|
| Flight time | N/A |
| Altitude | 37000 |
| Route | ANTEG DCT OBRON DCT MOBUB DCT EBMOS DCT CEFOU N517A ALLRY/M082F380 NATT SOVED/N0466F390 DCT LUTOV DCT KELLY L10 WAL UY53 NUGRA |
| Aircraft | A339/H-SADE1E2E3GHIJ3J5M1P2RWXY/LB2D1 |
Departure
| Time | 2026-05-03 21:20 |
|---|---|
| Airport | Montreal / Pierre Elliott Trudeau International Airport (CYUL) |
Arrival
| Time | N/A |
|---|---|
| Airport | London Heathrow Airport (EGLL) |
| Time | Latitude | Longitude | Altitude | Speed | Heading |
|---|---|---|---|---|---|
| 2026-05-03 21:12 | 45.45974 | -73.75634 | 110 ft | 0 kts | 178° |
| 2026-05-03 21:14 | 45.45992 | -73.75635 | 103 ft | 4 kts | 178° |
| 2026-05-03 21:14 | 45.46022 | -73.75636 | 108 ft | 4 kts | 163° |
| 2026-05-03 21:14 | 45.46041 | -73.75646 | 106 ft | 4 kts | 129° |
| 2026-05-03 21:14 | 45.46051 | -73.75668 | 106 ft | 0 kts | 99° |
| 2026-05-03 21:15 | 45.46051 | -73.75669 | 106 ft | 0 kts | 99° |
| 2026-05-03 21:15 | 45.46051 | -73.75670 | 107 ft | 0 kts | 99° |
| 2026-05-03 21:15 | 45.46050 | -73.75658 | 106 ft | 13 kts | 99° |
| 2026-05-03 21:16 | 45.46088 | -73.75361 | 109 ft | 37 kts | 71° |
| 2026-05-03 21:16 | 45.46141 | -73.75005 | 107 ft | 36 kts | 83° |
| 2026-05-03 21:16 | 45.46139 | -73.74653 | 110 ft | 35 kts | 95° |
| 2026-05-03 21:16 | 45.46133 | -73.74305 | 109 ft | 35 kts | 89° |
| 2026-05-03 21:17 | 45.46194 | -73.73990 | 111 ft | 33 kts | 46° |
| 2026-05-03 21:17 | 45.46357 | -73.73776 | 112 ft | 31 kts | 41° |
| 2026-05-03 21:17 | 45.46511 | -73.73576 | 113 ft | 30 kts | 43° |
| 2026-05-03 21:17 | 45.46667 | -73.73368 | 114 ft | 33 kts | 42° |
| 2026-05-03 21:18 | 45.46849 | -73.73126 | 116 ft | 38 kts | 43° |
| 2026-05-03 21:18 | 45.47056 | -73.72858 | 118 ft | 43 kts | 41° |
| 2026-05-03 21:18 | 45.47279 | -73.72567 | 120 ft | 31 kts | 43° |
| 2026-05-03 21:18 | 45.47413 | -73.72391 | 120 ft | 32 kts | 42° |
| 2026-05-03 21:19 | 45.47582 | -73.72173 | 122 ft | 32 kts | 44° |
| 2026-05-03 21:19 | 45.47743 | -73.71955 | 123 ft | 29 kts | 43° |
| 2026-05-03 21:19 | 45.47803 | -73.71822 | 128 ft | 19 kts | 87° |
| 2026-05-03 21:19 | 45.47709 | -73.71664 | 126 ft | 25 kts | 163° |
| 2026-05-03 21:20 | 45.47509 | -73.71852 | 126 ft | 67 kts | 224° |
| 2026-05-03 21:20 | 45.46964 | -73.72568 | 119 ft | 142 kts | 223° |
| 2026-05-03 21:20 | 45.46140 | -73.73664 | 478 ft | 167 kts | 227° |
| 2026-05-03 21:20 | 45.45281 | -73.74867 | 1176 ft | 179 kts | 231° |
| 2026-05-03 21:21 | 45.44639 | -73.76376 | 2000 ft | 177 kts | 256° |
| 2026-05-03 21:21 | 45.44640 | -73.78165 | 2555 ft | 195 kts | 287° |
| 2026-05-03 21:21 | 45.45397 | -73.79807 | 3343 ft | 203 kts | 318° |
| 2026-05-03 21:21 | 45.46669 | -73.80658 | 4287 ft | 207 kts | 347° |
| 2026-05-03 21:22 | 45.48121 | -73.80490 | 5051 ft | 218 kts | 15° |
| 2026-05-03 21:22 | 45.49418 | -73.79288 | 5730 ft | 231 kts | 44° |
| 2026-05-03 21:22 | 45.50221 | -73.77272 | 6427 ft | 239 kts | 73° |
| 2026-05-03 21:22 | 45.50315 | -73.74906 | 7125 ft | 241 kts | 98° |
| 2026-05-03 21:23 | 45.50489 | -73.72498 | 7469 ft | 254 kts | 65° |
| 2026-05-03 21:23 | 45.51485 | -73.70377 | 7499 ft | 273 kts | 41° |
| 2026-05-03 21:23 | 45.53137 | -73.68915 | 7381 ft | 278 kts | 13° |
| 2026-05-03 21:23 | 45.54992 | -73.68421 | 8059 ft | 273 kts | 4° |
| 2026-05-03 21:24 | 45.56863 | -73.67876 | 8771 ft | 277 kts | 12° |
| 2026-05-03 21:24 | 45.58672 | -73.66904 | 9473 ft | 281 kts | 21° |
| 2026-05-03 21:24 | 45.60415 | -73.65571 | 10117 ft | 286 kts | 27° |
| 2026-05-03 21:24 | 45.62143 | -73.64015 | 10389 ft | 303 kts | 30° |
| 2026-05-03 21:25 | 45.63950 | -73.62272 | 10562 ft | 321 kts | 31° |
| 2026-05-03 21:25 | 45.65838 | -73.60414 | 10824 ft | 334 kts | 31° |
| 2026-05-03 21:25 | 45.67739 | -73.58538 | 11361 ft | 338 kts | 31° |
| 2026-05-03 21:25 | 45.69683 | -73.56629 | 11977 ft | 340 kts | 31° |
| 2026-05-03 21:26 | 45.71645 | -73.54714 | 12569 ft | 343 kts | 30° |
| 2026-05-03 21:26 | 45.73626 | -73.52787 | 13153 ft | 345 kts | 30° |
| 2026-05-03 21:26 | 45.75622 | -73.50847 | 13710 ft | 348 kts | 30° |
| 2026-05-03 21:26 | 45.77635 | -73.48891 | 14221 ft | 351 kts | 30° |
| 2026-05-03 21:27 | 45.79658 | -73.46924 | 14719 ft | 354 kts | 30° |
| 2026-05-03 21:27 | 45.81706 | -73.44931 | 15234 ft | 356 kts | 30° |
| 2026-05-03 21:27 | 45.83768 | -73.42921 | 15711 ft | 360 kts | 30° |
| 2026-05-03 21:27 | 45.85817 | -73.40898 | 16175 ft | 363 kts | 32° |
| 2026-05-03 21:28 | 45.87749 | -73.38512 | 16671 ft | 370 kts | 41° |
| 2026-05-03 21:28 | 45.89515 | -73.35787 | 17145 ft | 374 kts | 44° |
| 2026-05-03 21:28 | 45.91294 | -73.33039 | 17645 ft | 377 kts | 43° |
| 2026-05-03 21:28 | 45.93095 | -73.30277 | 18128 ft | 380 kts | 43° |
| 2026-05-03 21:29 | 45.94910 | -73.27500 | 18578 ft | 382 kts | 43° |
| 2026-05-03 21:29 | 45.96733 | -73.24706 | 19030 ft | 384 kts | 43° |
| 2026-05-03 21:29 | 45.98567 | -73.21890 | 19462 ft | 387 kts | 43° |
| 2026-05-03 21:29 | 46.00410 | -73.19058 | 19916 ft | 389 kts | 43° |
| 2026-05-03 21:30 | 46.02267 | -73.16200 | 20356 ft | 392 kts | 43° |
| 2026-05-03 21:30 | 46.04114 | -73.13354 | 20801 ft | 394 kts | 43° |
| 2026-05-03 21:30 | 46.05995 | -73.10453 | 21263 ft | 397 kts | 43° |
| 2026-05-03 21:30 | 46.07876 | -73.07547 | 21789 ft | 398 kts | 43° |
| 2026-05-03 21:31 | 46.09774 | -73.04613 | 22214 ft | 401 kts | 43° |
| 2026-05-03 21:31 | 46.11688 | -73.01654 | 22657 ft | 404 kts | 43° |
| 2026-05-03 21:31 | 46.13605 | -72.98687 | 23126 ft | 406 kts | 44° |
| 2026-05-03 21:31 | 46.15536 | -72.95693 | 23540 ft | 409 kts | 44° |
| 2026-05-03 21:32 | 46.17408 | -72.92575 | 23892 ft | 414 kts | 50° |
| 2026-05-03 21:32 | 46.19008 | -72.89094 | 24263 ft | 419 kts | 57° |
| 2026-05-03 21:32 | 46.20500 | -72.85438 | 24633 ft | 422 kts | 56° |
| 2026-05-03 21:32 | 46.21990 | -72.81843 | 24999 ft | 424 kts | 56° |
| 2026-05-03 21:33 | 46.23517 | -72.78175 | 25370 ft | 427 kts | 56° |
| 2026-05-03 21:33 | 46.25051 | -72.74488 | 25729 ft | 429 kts | 56° |
| 2026-05-03 21:33 | 46.26596 | -72.70768 | 26093 ft | 432 kts | 56° |
| 2026-05-03 21:33 | 46.28144 | -72.67037 | 26468 ft | 434 kts | 56° |
| 2026-05-03 21:34 | 46.29705 | -72.63271 | 26813 ft | 437 kts | 56° |
| 2026-05-03 21:34 | 46.31269 | -72.59488 | 27162 ft | 440 kts | 57° |
| 2026-05-03 21:34 | 46.32841 | -72.55677 | 27492 ft | 443 kts | 57° |
| 2026-05-03 21:34 | 46.34424 | -72.51833 | 27838 ft | 445 kts | 57° |
| 2026-05-03 21:35 | 46.36016 | -72.47969 | 28141 ft | 449 kts | 57° |
| 2026-05-03 21:35 | 46.37616 | -72.44071 | 28464 ft | 451 kts | 58° |
| 2026-05-03 21:35 | 46.39223 | -72.40150 | 28785 ft | 454 kts | 58° |
| 2026-05-03 21:35 | 46.40843 | -72.36189 | 29101 ft | 457 kts | 58° |
| 2026-05-03 21:36 | 46.42449 | -72.32262 | 29414 ft | 460 kts | 58° |
| 2026-05-03 21:36 | 46.44084 | -72.28260 | 29678 ft | 463 kts | 58° |
| 2026-05-03 21:36 | 46.45727 | -72.24230 | 29980 ft | 466 kts | 58° |
| 2026-05-03 21:36 | 46.47379 | -72.20171 | 30245 ft | 468 kts | 59° |
| 2026-05-03 21:37 | 46.49035 | -72.16095 | 30515 ft | 471 kts | 59° |
| 2026-05-03 21:37 | 46.50701 | -72.11989 | 30785 ft | 473 kts | 59° |
| 2026-05-03 21:37 | 46.52378 | -72.07853 | 31056 ft | 475 kts | 59° |
| 2026-05-03 21:37 | 46.54055 | -72.03708 | 31312 ft | 478 kts | 59° |
| 2026-05-03 21:38 | 46.55749 | -71.99527 | 31574 ft | 481 kts | 59° |
| 2026-05-03 21:38 | 46.57474 | -71.95348 | 31833 ft | 483 kts | 58° |
| 2026-05-03 21:38 | 46.59222 | -71.91159 | 32018 ft | 487 kts | 59° |
| 2026-05-03 21:38 | 46.60980 | -71.86947 | 32269 ft | 489 kts | 59° |
| 2026-05-03 21:39 | 46.62742 | -71.82708 | 32492 ft | 490 kts | 59° |
| 2026-05-03 21:39 | 46.64495 | -71.78476 | 32663 ft | 493 kts | 59° |
| 2026-05-03 21:39 | 46.66262 | -71.74196 | 32849 ft | 494 kts | 59° |
| 2026-05-03 21:39 | 46.68035 | -71.69890 | 33027 ft | 496 kts | 59° |
| 2026-05-03 21:40 | 46.69814 | -71.65562 | 33176 ft | 497 kts | 59° |
| 2026-05-03 21:40 | 46.71573 | -71.61276 | 33307 ft | 499 kts | 59° |
| 2026-05-03 21:40 | 46.73354 | -71.56932 | 33485 ft | 499 kts | 60° |
| 2026-05-03 21:40 | 46.75134 | -71.52581 | 33654 ft | 499 kts | 60° |
| 2026-05-03 21:41 | 46.76910 | -71.48234 | 33820 ft | 499 kts | 60° |
| 2026-05-03 21:41 | 46.78685 | -71.43879 | 33966 ft | 499 kts | 60° |
| 2026-05-03 21:41 | 46.80460 | -71.39521 | 34098 ft | 499 kts | 60° |
| 2026-05-03 21:41 | 46.82236 | -71.35153 | 34238 ft | 500 kts | 60° |
| 2026-05-03 21:42 | 46.84015 | -71.30775 | 34344 ft | 501 kts | 60° |
| 2026-05-03 21:42 | 46.85790 | -71.26394 | 34488 ft | 501 kts | 60° |
| 2026-05-03 21:42 | 46.87564 | -71.22008 | 34626 ft | 501 kts | 60° |
| 2026-05-03 21:42 | 46.89339 | -71.17614 | 34729 ft | 502 kts | 60° |
| 2026-05-03 21:43 | 46.91089 | -71.13275 | 34868 ft | 502 kts | 60° |
| 2026-05-03 21:43 | 46.92864 | -71.08866 | 35004 ft | 503 kts | 60° |
| 2026-05-03 21:43 | 46.94638 | -71.04453 | 35132 ft | 503 kts | 60° |
| 2026-05-03 21:43 | 46.96408 | -71.00043 | 35267 ft | 503 kts | 60° |
| 2026-05-03 21:44 | 46.98182 | -70.95614 | 35376 ft | 503 kts | 60° |
| 2026-05-03 21:44 | 46.99949 | -70.91198 | 35505 ft | 503 kts | 60° |
| 2026-05-03 21:44 | 47.01725 | -70.86751 | 35633 ft | 504 kts | 60° |
| 2026-05-03 21:44 | 47.03494 | -70.82314 | 35762 ft | 504 kts | 61° |
| 2026-05-03 21:45 | 47.05262 | -70.77876 | 35866 ft | 505 kts | 61° |
| 2026-05-03 21:45 | 47.07038 | -70.73408 | 35984 ft | 505 kts | 61° |
| 2026-05-03 21:45 | 47.08774 | -70.69034 | 36118 ft | 504 kts | 61° |
| 2026-05-03 21:45 | 47.10542 | -70.64569 | 36246 ft | 505 kts | 61° |
| 2026-05-03 21:46 | 47.12310 | -70.60099 | 36363 ft | 505 kts | 61° |
| 2026-05-03 21:46 | 47.14073 | -70.55635 | 36500 ft | 505 kts | 61° |
| 2026-05-03 21:46 | 47.15835 | -70.51164 | 36610 ft | 505 kts | 61° |
| 2026-05-03 21:46 | 47.17595 | -70.46693 | 36718 ft | 505 kts | 61° |
| 2026-05-03 21:47 | 47.21105 | -70.37751 | 36768 ft | 504 kts | 61° |
| 2026-05-03 21:47 | 47.24581 | -70.28870 | 36769 ft | 504 kts | 61° |